M I D A S
Marine Information and Data Acquisition System
Tripno 1442 of the Zeeleeuw from 2008-03-20 07:41:39 to 2008-03-20 15:24:56
Back to CruiseResearch ActivitiesStationsMapUnderway DataData graphs

EquipmentUnitsComment
TimeDGPSUTC
LatitudeDGPSDM.mWGS84
LongitudeDGPSDM.mWGS84
TemperatureSBE03/SBE38deg celciusITS90
ConductivitySBE21S/mITS90
SalinitySBE21 Practical Salinity Units
ChlorophylAChelsea fluorimeterg/lCalibrated in Aceton
Missing or incorrect values are displayed as -999
Sea surface data collected by the RV Zeeleeuw from 2008-03-20 07:38:23 to 2008-03-20 15:35:19
Time Latitude Longitude Temperature Conductivity Salinity ChlorophylA
2008-03-20 07:39:28 51°13.681 2°55.897 14.9438 1.037503 6.437037 -1.731873
2008-03-20 07:40:28 51°13.692 2°55.815 14.9485 1.037503 6.437266 -1.731873
2008-03-20 07:41:28 51°13.691 2°55.757 14.954 1.0374 6.436806 -1.731873
2008-03-20 07:42:28 51°13.69 2°55.744 14.9589 1.0374 6.437149 -1.766697
2008-03-20 07:43:28 51°13.706 2°55.748 14.9631 1.0374 6.437606 -1.731873
2008-03-20 07:44:28 51°13.758 2°55.707 14.9675 1.037297 6.437146 -1.731873
2008-03-20 07:45:28 51°13.864 2°55.604 14.9712 1.037193 6.437029 -1.766697
2008-03-20 07:46:28 51°13.994 2°55.511 14.9759 1.037194 6.437829 -1.731873
2008-03-20 07:47:28 51°14.122 2°55.412 14.9816 1.03709 6.437598 -1.731873
2008-03-20 07:48:28 51°14.242 2°55.289 14.9869 1.036987 6.437366 -1.731873
2008-03-20 07:49:28 51°14.362 2°55.083 14.9921 1.036884 6.43702 -1.731873
2008-03-20 07:50:28 51°14.46 2°54.814 14.9974 1.036884 6.437592 -1.731873
2008-03-20 07:51:28 51°14.539 2°54.508 15.0028 1.036678 6.436442 -1.731873
2008-03-20 07:52:28 51°14.617 2°54.201 15.0088 1.036678 6.437129 -1.731873
2008-03-20 07:53:28 51°14.676 2°53.88 15.0152 1.036575 6.436668 -1.731873
2008-03-20 07:54:28 51°14.715 2°53.556 15.0215 1.036472 6.436436 -1.731873
2008-03-20 07:55:28 51°14.732 2°53.222 15.028 1.036472 6.436894 -1.731873
2008-03-20 07:56:28 51°14.75 2°52.886 15.0342 1.036369 6.436777 -1.731873
2008-03-20 07:57:28 51°14.76 2°52.546 15.0414 1.036266 6.436545 -1.766697
2008-03-20 07:58:28 51°14.776 2°52.206 15.0493 1.03606 6.433335 -1.731873
2008-03-20 07:59:28 51°14.787 2°51.863 15.0568 1.035957 6.452504 -1.766697
2008-03-20 08:00:28 51°14.799 2°51.517 15.0653 1.035648 6.455269 -1.766697
2008-03-20 08:01:28 51°14.812 2°51.165 15.0734 0.637699 3.929475 -1.453281
2008-03-20 08:02:28 51°14.825 2°50.814 15.0812 0.342562 2.191296 -1.766697
2008-03-20 08:03:28 51°14.838 2°50.461 15.0903 0.2671 1.671966 -1.766697
2008-03-20 08:04:28 51°14.84 2°50.105 15.0984 0.217998 1.337949 -1.766697
2008-03-20 08:05:28 51°14.845 2°49.753 15.1081 0.191441 1.164996 -1.766697
2008-03-20 08:06:28 51°14.85 2°49.406 15.1171 0.176105 1.065266 -1.766697
2008-03-20 08:07:28 51°14.856 2°49.059 15.1272 0.166635 1.005553 -1.766697
2008-03-20 08:08:28 51°14.851 2°48.714 15.1355 0.15943 0.959699 -1.766697
2008-03-20 08:09:28 51°14.832 2°48.376 15.1449 0.155005 0.932068 -1.766697
2008-03-20 08:10:28 51°14.813 2°48.035 15.1526 0.151917 0.911312 -1.766697
2008-03-20 08:11:28 51°14.796 2°47.696 15.1618 0.149756 0.898076 -1.766697
2008-03-20 08:12:28 51°14.777 2°47.355 15.1704 0.148417 0.889392 -1.766697
2008-03-20 08:13:28 51°14.762 2°47.015 15.1813 0.147285 0.882078 -1.766697
2008-03-20 08:14:28 51°14.743 2°46.674 15.1897 0.146256 0.875365 -1.766697
2008-03-20 08:15:28 51°14.726 2°46.335 15.1997 0.145536 0.870899 -1.766697
2008-03-20 08:16:28 51°14.708 2°45.998 15.2085 0.144918 0.866943 -1.766697
2008-03-20 08:17:28 51°14.689 2°45.66 15.2168 0.144506 0.864364 -1.766697
2008-03-20 08:18:28 51°14.672 2°45.316 15.2274 0.144198 0.862345 -1.766697
2008-03-20 08:19:28 51°14.653 2°44.972 15.2366 0.143786 0.860001 -1.766697
2008-03-20 08:20:28 51°14.636 2°44.627 15.246 0.143374 0.857222 -1.766697
2008-03-20 08:21:28 51°14.615 2°44.282 15.2555 0.143168 0.856099 -1.766697
2008-03-20 08:22:28 51°14.594 2°43.935 15.2652 0.14286 0.854199 -1.766697
2008-03-20 08:23:28 51°14.573 2°43.589 15.2739 0.142757 0.853637 -1.766697
2008-03-20 08:24:28 51°14.551 2°43.24 15.2844 0.142551 0.852332 -1.766697
2008-03-20 08:25:28 51°14.533 2°42.892 15.2945 0.142345 0.85101 -1.766697
2008-03-20 08:26:28 51°14.512 2°42.543 15.3036 0.142139 0.849737 -1.766697
2008-03-20 08:27:28 51°14.49 2°42.202 15.3131 0.142036 0.849143 -1.766697
2008-03-20 08:28:28 51°14.467 2°41.862 15.3241 0.14183 0.847854 -1.766697
2008-03-20 08:29:28 51°14.443 2°41.524 15.333 0.14183 0.847837 -1.766697
2008-03-20 08:30:28 51°14.419 2°41.185 15.3414 0.141727 0.847226 -1.766697
2008-03-20 08:31:28 51°14.396 2°40.846 15.3534 0.141522 0.846069 -1.766697
2008-03-20 08:32:28 51°14.379 2°40.509 15.3624 0.141522 0.846135 -1.766697
2008-03-20 08:33:28 51°14.361 2°40.177 15.3728 0.141419 0.845524 -1.766697
2008-03-20 08:34:28 51°14.344 2°39.845 15.383 0.141316 0.844846 -1.766697
2008-03-20 08:35:28 51°14.325 2°39.513 15.3929 0.141316 0.844912 -1.766697
2008-03-20 08:36:28 51°14.305 2°39.181 15.4041 0.141213 0.844268 -1.731873
2008-03-20 08:37:28 51°14.281 2°38.85 15.4147 0.141213 0.844251 -1.766697
2008-03-20 08:38:28 51°14.236 2°38.517 15.4246 0.14111 0.843607 -1.766697
2008-03-20 08:39:28 51°14.188 2°38.182 15.435 0.14111 0.843591 -1.766697
2008-03-20 08:40:28 51°14.145 2°37.847 15.4456 0.141007 0.842963 -1.766697
2008-03-20 08:41:28 51°14.103 2°37.507 15.4558 0.141007 0.842979 -1.766697
2008-03-20 08:42:28 51°14.064 2°37.167 15.4671 0.140904 0.842351 -1.766697
2008-03-20 08:43:28 51°14.024 2°36.831 15.4779 0.140904 0.842318 -1.766697
2008-03-20 08:44:28 51°13.988 2°36.497 15.4901 0.140801 0.841625 -1.801521
2008-03-20 08:45:28 51°13.952 2°36.167 15.5 0.140801 0.841658 -1.766697
2008-03-20 08:46:28 51°13.92 2°35.84 15.5119 0.140698 0.841014 -1.766697
2008-03-20 08:47:28 51°13.885 2°35.515 15.5218 0.140698 0.841079 -1.766697
2008-03-20 08:48:28 51°13.852 2°35.193 15.5329 0.140698 0.841079 -1.766697
2008-03-20 08:49:28 51°13.822 2°34.869 15.544 0.140595 0.840451 -1.766697
2008-03-20 08:50:28 51°13.789 2°34.544 15.5547 0.140595 0.840402 -1.766697
2008-03-20 08:51:28 51°13.752 2°34.215 15.5661 0.140595 0.840369 -1.766697
2008-03-20 08:52:28 51°13.713 2°33.884 15.5778 0.140492 0.839676 -1.766697
2008-03-20 08:53:28 51°13.69 2°33.552 15.5897 0.140492 0.839594 -1.766697
2008-03-20 08:54:28 51°13.687 2°33.215 15.5994 0.140492 0.839611 -1.766697
2008-03-20 08:55:28 51°13.694 2°32.88 15.6121 0.140492 0.839562 -1.766697
2008-03-20 08:56:28 51°13.698 2°32.541 15.6221 0.140389 0.838836 -1.766697
2008-03-20 08:57:28 51°13.702 2°32.2 15.632 0.140389 0.838804 -1.766697
2008-03-20 08:58:28 51°13.703 2°31.94 15.6434 0.140389 0.838657 -1.766697
2008-03-20 08:59:28 51°13.727 2°31.866 15.6541 0.140389 0.838689 -1.766697
2008-03-20 09:00:28 51°13.731 2°31.868 15.6642 0.140287 0.837931 -1.766697
2008-03-20 09:01:28 51°13.726 2°31.878 15.6738 0.140287 0.83785 -1.766697
2008-03-20 09:02:28 51°13.716 2°31.888 15.6838 0.140287 0.837785 -1.766697
2008-03-20 09:03:28 51°13.702 2°31.899 15.6924 0.140287 0.837687 -1.766697
2008-03-20 09:04:28 51°13.685 2°31.912 15.7 0.140287 0.837654 -1.766697
2008-03-20 09:05:28 51°13.665 2°31.923 15.7041 0.140287 0.837573 -1.766697
2008-03-20 09:06:28 51°13.644 2°31.934 15.7072 0.140287 0.837508 -1.766697
2008-03-20 09:07:28 51°13.629 2°31.949 15.7086 0.140184 0.836864 -1.766697
2008-03-20 09:08:28 51°13.637 2°31.97 15.7097 0.140184 0.836832 -1.766697
2008-03-20 09:09:28 51°13.654 2°31.987 15.71 0.140184 0.836881 -1.766697
2008-03-20 09:10:28 51°13.672 2°32.003 15.7109 0.140184 0.836897 -1.766697
2008-03-20 09:11:28 51°13.688 2°32.029 15.7122 0.140184 0.836946 -1.766697
2008-03-20 09:12:28 51°13.701 2°32.061 15.7134 0.140184 0.836995 -1.766697
2008-03-20 09:13:28 51°13.714 2°32.099 15.7152 0.140184 0.837011 -1.766697
2008-03-20 09:14:28 51°13.726 2°32.142 15.7175 0.140184 0.837011 -1.766697
2008-03-20 09:15:28 51°13.737 2°32.182 15.7212 0.140184 0.837027 -1.766697
2008-03-20 09:16:28 51°13.747 2°32.226 15.725 0.140184 0.837043 -1.766697
2008-03-20 09:17:28 51°13.755 2°32.272 15.7299 0.140184 0.837076 -1.766697
2008-03-20 09:18:28 51°13.76 2°32.322 15.7354 0.140081 0.836481 -1.766697
2008-03-20 09:19:28 51°13.764 2°32.366 15.7407 0.140081 0.836514 -1.766697
2008-03-20 09:20:28 51°13.77 2°32.408 15.747 0.140081 0.836498 -1.766697
2008-03-20 09:21:28 51°13.77 2°32.436 15.7539 0.140081 0.836563 -1.766697
2008-03-20 09:22:28 51°13.766 2°32.456 15.7619 0.140081 0.836546 -1.766697
2008-03-20 09:23:28 51°13.759 2°32.473 15.7703 0.140081 0.836628 -1.766697
2008-03-20 09:24:28 51°13.75 2°32.489 15.7795 0.140081 0.836644 -1.766697
2008-03-20 09:25:28 51°13.737 2°32.505 15.7894 0.140081 0.836758 -1.766697
2008-03-20 09:26:28 51°13.718 2°32.524 15.7995 0.140081 0.836823 -1.766697
2008-03-20 09:27:28 51°13.699 2°32.543 15.8103 0.140081 0.836872 -1.766697
2008-03-20 09:28:28 51°13.681 2°32.561 15.8209 0.140081 0.836937 -1.766697
2008-03-20 09:29:28 51°13.664 2°32.579 15.8317 0.140081 0.837002 -1.766697
2008-03-20 09:30:28 51°13.65 2°32.597 15.8437 0.139978 0.836391 -1.766697
2008-03-20 09:31:27 51°13.639 2°32.623 15.8558 0.139978 0.836472 -1.766697
2008-03-20 09:32:28 51°13.653 2°32.645 15.8685 0.139978 0.836554 -1.766697
2008-03-20 09:33:28 51°13.684 2°32.634 15.8809 0.139978 0.836586 -1.766697
2008-03-20 09:34:28 51°13.753 2°32.59 15.8945 0.139978 0.836717 -1.766697
2008-03-20 09:35:28 51°13.85 2°32.473 15.9072 0.139978 0.836749 -1.766697
2008-03-20 09:36:28 51°13.956 2°32.339 15.9209 0.139978 0.836831 -1.766697
2008-03-20 09:37:28 51°14.069 2°32.213 15.9348 0.139978 0.836929 -1.766697
2008-03-20 09:38:28 51°14.184 2°32.1 15.9494 0.139978 0.836978 -1.766697
2008-03-20 09:39:28 51°14.268 2°32.024 15.964 0.139978 0.837075 -1.766697
2008-03-20 09:40:27 51°14.312 2°32.003 15.9796 0.139978 0.837092 -1.766697
2008-03-20 09:41:28 51°14.327 2°32.034 15.9957 0.140081 0.837736 -1.766697
2008-03-20 09:42:28 51°14.334 2°32.079 16.0112 0.140081 0.837785 -1.766697
2008-03-20 09:43:28 51°14.336 2°32.124 16.0268 0.139978 0.837288 -1.766697
2008-03-20 09:44:28 51°14.333 2°32.163 16.0434 0.140081 0.837981 -1.766697
2008-03-20 09:45:28 51°14.331 2°32.205 16.0591 0.139978 0.837337 -1.766697
2008-03-20 09:46:28 51°14.329 2°32.246 16.0754 0.139978 0.837304 -1.766697
2008-03-20 09:47:28 51°14.328 2°32.287 16.0915 0.139978 0.837369 -1.766697
2008-03-20 09:48:28 51°14.329 2°32.33 16.1082 0.139978 0.837385 -1.766697
2008-03-20 09:49:28 51°14.334 2°32.375 16.1249 0.139978 0.837337 -1.766697
2008-03-20 09:50:28 51°14.34 2°32.423 16.1417 0.140081 0.838014 -1.766697
2008-03-20 09:51:28 51°14.345 2°32.471 16.1585 0.140081 0.838047 -1.766697
2008-03-20 09:52:28 51°14.35 2°32.52 16.1757 0.140081 0.838145 -1.766697
2008-03-20 09:53:28 51°14.351 2°32.567 16.1925 0.140081 0.838275 -1.766697
2008-03-20 09:54:28 51°14.352 2°32.613 16.2089 0.139978 0.837581 -1.766697
2008-03-20 09:55:28 51°14.353 2°32.66 16.2256 0.139978 0.837647 -1.766697
2008-03-20 09:56:28 51°14.369 2°32.708 16.2418 0.139978 0.83781 -1.766697
2008-03-20 09:57:28 51°14.438 2°32.667 16.2578 0.139978 0.837827 -1.766697
2008-03-20 09:58:28 51°14.541 2°32.523 16.2731 0.139978 0.837761 -1.766697
2008-03-20 09:59:28 51°14.551 2°32.442 16.2881 0.139978 0.837663 -1.766697
2008-03-20 10:00:28 51°14.547 2°32.412 16.3032 0.139978 0.837696 -1.766697
2008-03-20 10:01:28 51°14.549 2°32.35 16.3195 0.139978 0.837679 -1.766697
2008-03-20 10:02:28 51°14.523 2°32.302 16.3359 0.139978 0.837581 -1.766697
2008-03-20 10:03:28 51°14.493 2°32.255 16.3522 0.139978 0.837549 -1.766697
2008-03-20 10:04:28 51°14.468 2°32.214 16.3681 0.139978 0.8375 -1.766697
2008-03-20 10:05:28 51°14.433 2°32.157 16.3847 0.139978 0.8375 -1.766697
2008-03-20 10:06:28 51°14.391 2°32.095 16.4012 0.139978 0.837483 -1.766697
2008-03-20 10:07:28 51°14.35 2°32.067 16.4183 0.139978 0.837483 -1.766697
2008-03-20 10:08:28 51°14.318 2°32.013 16.435 0.139978 0.8375 -1.766697
2008-03-20 10:09:28 51°14.285 2°31.948 16.4517 0.139978 0.837516 -1.766697
2008-03-20 10:10:28 51°14.248 2°31.9 16.4689 0.139978 0.837549 -1.766697
2008-03-20 10:11:28 51°14.208 2°31.858 16.4857 0.139978 0.8375 -1.766697
2008-03-20 10:12:28 51°14.165 2°31.821 16.5018 0.139978 0.837467 -1.766697
2008-03-20 10:13:28 51°14.122 2°31.787 16.5194 0.139978 0.837467 -1.766697
2008-03-20 10:14:28 51°14.079 2°31.748 16.5377 0.139978 0.837434 -1.766697
2008-03-20 10:15:28 51°14.037 2°31.707 16.5559 0.139978 0.837451 -1.766697
2008-03-20 10:16:28 51°13.997 2°31.672 16.5754 0.139978 0.837434 -1.766697
2008-03-20 10:17:28 51°13.96 2°31.629 16.5944 0.139875 0.83679 -1.766697
2008-03-20 10:18:28 51°13.924 2°31.586 16.6127 0.139875 0.836773 -1.766697
2008-03-20 10:19:28 51°13.89 2°31.54 16.6305 0.139875 0.836773 -1.766697
2008-03-20 10:20:28 51°13.856 2°31.492 16.6466 0.139875 0.83679 -1.766697
2008-03-20 10:21:28 51°13.824 2°31.443 16.6628 0.139875 0.83679 -1.766697
2008-03-20 10:22:28 51°13.79 2°31.401 16.6789 0.139875 0.836822 -1.766697
2008-03-20 10:23:28 51°13.758 2°31.363 16.6938 0.139875 0.836822 -1.766697
2008-03-20 10:24:28 51°13.726 2°31.319 16.7096 0.139875 0.836822 -1.766697
2008-03-20 10:25:28 51°13.696 2°31.272 16.724 0.139875 0.836839 -1.766697
2008-03-20 10:26:28 51°13.704 2°31.197 16.7384 0.139875 0.83692 -1.766697
2008-03-20 10:27:28 51°13.765 2°31.169 16.7525 0.139875 0.83692 -1.766697
2008-03-20 10:28:28 51°13.825 2°31.202 16.7655 0.139875 0.836937 -1.766697
2008-03-20 10:29:28 51°13.881 2°31.243 16.7781 0.139875 0.836986 -1.766697
2008-03-20 10:30:28 51°13.936 2°31.288 16.7901 0.139875 0.837035 -1.766697
2008-03-20 10:31:28 51°13.989 2°31.33 16.8015 0.139875 0.837067 -1.766697
2008-03-20 10:32:28 51°14.043 2°31.382 16.8127 0.139875 0.837182 -1.766697
2008-03-20 10:33:28 51°14.097 2°31.431 16.8237 0.139875 0.837247 -1.766697
2008-03-20 10:34:28 51°14.152 2°31.481 16.8353 0.139875 0.837345 -1.766697
2008-03-20 10:35:28 51°14.206 2°31.529 16.8459 0.139875 0.837378 -1.766697
2008-03-20 10:36:28 51°14.262 2°31.58 16.8566 0.139875 0.837492 -1.766697
2008-03-20 10:37:28 51°14.318 2°31.63 16.8671 0.139875 0.83759 -1.766697
2008-03-20 10:38:28 51°14.374 2°31.683 16.8774 0.139875 0.837672 -1.766697
2008-03-20 10:39:28 51°14.429 2°31.749 16.8881 0.139875 0.83777 -1.766697
2008-03-20 10:40:28 51°14.476 2°31.825 16.8981 0.139875 0.837868 -1.766697
2008-03-20 10:41:28 51°14.503 2°31.924 16.9079 0.139875 0.838015 -1.766697
2008-03-20 10:42:28 51°14.514 2°32.024 16.9174 0.139875 0.838081 -1.766697
2008-03-20 10:43:28 51°14.507 2°32.11 16.9268 0.139875 0.838196 -1.766697
2008-03-20 10:44:28 51°14.494 2°32.178 16.9361 0.139875 0.838245 -1.766697
2008-03-20 10:45:28 51°14.484 2°32.234 16.946 0.139875 0.83831 -1.766697
2008-03-20 10:46:28 51°14.478 2°32.282 16.9564 0.139978 0.839005 -1.766697
2008-03-20 10:47:28 51°14.475 2°32.33 16.9664 0.139978 0.839038 -1.766697
2008-03-20 10:48:28 51°14.476 2°32.379 16.9765 0.139978 0.839055 -1.766697
2008-03-20 10:49:28 51°14.478 2°32.431 16.987 0.139978 0.839071 -1.766697
2008-03-20 10:50:28 51°14.47 2°32.484 16.9976 0.139978 0.839087 -1.766697
2008-03-20 10:51:28 51°14.447 2°32.573 17.0085 0.139978 0.839071 -1.766697
2008-03-20 10:52:28 51°14.429 2°32.72 17.0198 0.139978 0.839022 -1.766697
2008-03-20 10:53:28 51°14.398 2°32.903 17.0309 0.139978 0.839038 -1.766697
2008-03-20 10:54:28 51°14.368 2°33.098 17.0415 0.139978 0.839071 -1.766697
2008-03-20 10:55:28 51°14.342 2°33.296 17.0523 0.139978 0.839104 -1.766697
2008-03-20 10:56:28 51°14.32 2°33.496 17.0624 0.139978 0.839087 -1.766697
2008-03-20 10:57:28 51°14.301 2°33.701 17.0726 0.139978 0.83912 -1.766697
2008-03-20 10:58:28 51°14.274 2°33.896 17.0821 0.139978 0.83912 -1.766697
2008-03-20 10:59:28 51°14.242 2°34.09 17.0918 0.139978 0.839153 -1.766697
2008-03-20 11:00:28 51°14.208 2°34.287 17.1017 0.139978 0.839202 -1.766697
2008-03-20 11:01:28 51°14.17 2°34.48 17.1116 0.139978 0.839235 -1.766697
2008-03-20 11:02:28 51°14.132 2°34.675 17.121 0.139978 0.839268 -1.766697
2008-03-20 11:03:28 51°14.094 2°34.87 17.1308 0.139978 0.839301 -1.766697
2008-03-20 11:04:28 51°14.053 2°35.068 17.1407 0.139978 0.839317 -1.766697
2008-03-20 11:05:28 51°14.012 2°35.267 17.1503 0.139978 0.839333 -1.766697
2008-03-20 11:06:28 51°13.969 2°35.466 17.1596 0.139978 0.839366 -1.766697
2008-03-20 11:07:28 51°13.925 2°35.666 17.1686 0.139978 0.839383 -1.766697
2008-03-20 11:08:28 51°13.88 2°35.866 17.1776 0.139978 0.839432 -1.766697
2008-03-20 11:09:28 51°13.836 2°36.064 17.1863 0.139978 0.839448 -1.766697
2008-03-20 11:10:28 51°13.795 2°36.266 17.1953 0.139875 0.838835 -1.766697
2008-03-20 11:11:28 51°13.749 2°36.462 17.2041 0.139875 0.838835 -1.766697
2008-03-20 11:12:28 51°13.699 2°36.653 17.2135 0.139875 0.838868 -1.766697
2008-03-20 11:13:28 51°13.65 2°36.845 17.2222 0.139875 0.838917 -1.766697
2008-03-20 11:14:28 51°13.602 2°37.038 17.2308 0.139875 0.83895 -1.766697
2008-03-20 11:15:28 51°13.547 2°37.221 17.2399 0.139875 0.838966 -1.766697
2008-03-20 11:16:28 51°13.46 2°37.308 17.2482 0.139875 0.839015 -1.766697
2008-03-20 11:17:28 51°13.34 2°37.296 17.2572 0.139875 0.839048 -1.766697
2008-03-20 11:18:28 51°13.191 2°37.255 17.266 0.139875 0.839114 -1.766697
2008-03-20 11:19:28 51°13.039 2°37.218 17.2752 0.139875 0.839245 -1.766697
2008-03-20 11:20:28 51°12.886 2°37.178 17.2845 0.139875 0.839377 -1.766697
2008-03-20 11:21:28 51°12.731 2°37.138 17.2938 0.139875 0.839574 -1.766697
2008-03-20 11:22:28 51°12.553 2°37.08 17.3027 0.139978 0.840501 -1.766697
2008-03-20 11:23:28 51°12.372 2°37.018 17.3118 0.139978 0.840781 -1.766697
2008-03-20 11:24:28 51°12.189 2°36.952 17.3211 0.139978 0.841044 -1.801521
2008-03-20 11:25:28 51°12.006 2°36.887 17.3299 0.139978 0.841424 -1.766697
2008-03-20 11:26:28 51°11.825 2°36.821 17.3386 0.140081 0.842352 -1.766697
2008-03-20 11:27:28 51°11.644 2°36.753 17.347 0.140081 0.842667 -1.766697
2008-03-20 11:28:28 51°11.469 2°36.659 17.3558 0.140081 0.842931 -1.766697
2008-03-20 11:29:28 51°11.294 2°36.567 17.3637 0.140081 0.84323 -1.766697
2008-03-20 11:30:28 51°11.123 2°36.465 17.3721 0.140081 0.843561 -1.766697
2008-03-20 11:31:28 51°10.95 2°36.37 17.3809 0.140081 0.843976 -1.766697
2008-03-20 11:32:28 51°10.778 2°36.268 17.3892 0.140184 0.845058 -1.766697
2008-03-20 11:33:28 51°10.607 2°36.162 17.3983 0.140184 0.84559 -1.766697
2008-03-20 11:34:28 51°10.438 2°36.064 17.4069 0.140184 0.84619 -1.766697
2008-03-20 11:35:28 51°10.27 2°35.959 17.4149 0.140287 0.847426 -1.766697
2008-03-20 11:36:28 51°10.1 2°35.859 17.4228 0.140287 0.847962 -1.766697
2008-03-20 11:37:28 51°9.932 2°35.771 17.4315 0.140287 0.848498 -1.766697
2008-03-20 11:38:28 51°9.769 2°35.678 17.4394 0.14039 0.849603 -1.766697
2008-03-20 11:39:28 51°9.62 2°35.594 17.4479 0.14039 0.850108 -1.766697
2008-03-20 11:40:28 51°9.55 2°35.621 17.4559 0.140493 0.851553 -1.766697
2008-03-20 11:41:28 51°9.534 2°35.731 17.4649 0.140493 0.851891 -1.766697
2008-03-20 11:42:28 51°9.558 2°35.84 17.4734 0.140596 0.853255 -1.766697
2008-03-20 11:43:28 51°9.57 2°35.903 17.4825 0.140596 0.853628 -1.766697
2008-03-20 11:44:28 51°9.571 2°35.946 17.49 0.140596 0.854001 -1.766697
2008-03-20 11:45:28 51°9.579 2°36 17.4972 0.140596 0.853967 -1.766697
2008-03-20 11:46:28 51°9.589 2°36.057 17.5034 0.140596 0.854425 -1.766697
2008-03-20 11:47:28 51°9.602 2°36.117 17.5089 0.140596 0.855123 -1.766697
2008-03-20 11:48:28 51°9.613 2°36.176 17.5144 0.140493 0.854756 -1.766697
2008-03-20 11:49:28 51°9.625 2°36.235 17.5189 0.140493 0.854876 -1.766697
2008-03-20 11:50:28 51°9.635 2°36.296 17.5236 0.14039 0.854186 -1.766697
2008-03-20 11:51:28 51°9.645 2°36.357 17.5272 0.14039 0.854271 -1.766697
2008-03-20 11:52:28 51°9.653 2°36.416 17.5312 0.140287 0.853734 -1.766697
2008-03-20 11:53:28 51°9.66 2°36.475 17.5345 0.140287 0.853853 -1.766697
2008-03-20 11:54:28 51°9.685 2°36.533 17.5372 0.140184 0.853265 -1.766697
2008-03-20 11:55:28 51°9.729 2°36.543 17.5411 0.140184 0.853112 -1.766697
2008-03-20 11:56:28 51°9.713 2°36.461 17.544 0.140081 0.852541 -1.766697
2008-03-20 11:57:28 51°9.641 2°36.309 17.5485 0.140081 0.852677 -1.766697
2008-03-20 11:58:28 51°9.562 2°36.133 17.5532 0.139978 0.852207 -1.766697
2008-03-20 11:59:28 51°9.485 2°35.957 17.558 0.139978 0.852326 -1.766697
2008-03-20 12:00:28 51°9.409 2°35.782 17.5635 0.139978 0.852751 -1.766697
2008-03-20 12:01:28 51°9.333 2°35.609 17.5692 0.139875 0.852316 -1.766697
2008-03-20 12:02:28 51°9.258 2°35.438 17.5754 0.139875 0.852384 -1.766697
2008-03-20 12:03:28 51°9.183 2°35.266 17.5818 0.139875 0.852265 -1.766697
2008-03-20 12:04:28 51°9.105 2°35.095 17.5881 0.139772 0.851472 -1.766697
2008-03-20 12:05:28 51°9.038 2°34.911 17.5941 0.139772 0.851625 -1.766697
2008-03-20 12:06:28 51°8.974 2°34.723 17.5999 0.139772 0.851846 -1.766697
2008-03-20 12:07:28 51°8.912 2°34.538 17.6066 0.139772 0.85188 -1.766697
2008-03-20 12:08:28 51°8.87 2°34.386 17.6125 0.139669 0.85124 -1.766697
2008-03-20 12:09:28 51°8.898 2°34.359 17.619 0.139669 0.851308 -1.766697
2008-03-20 12:10:28 51°8.922 2°34.411 17.6252 0.139669 0.851444 -1.766697
2008-03-20 12:11:28 51°8.941 2°34.476 17.6308 0.139669 0.851665 -1.766697
2008-03-20 12:12:28 51°8.959 2°34.541 17.6355 0.139669 0.851972 -1.766697
2008-03-20 12:13:28 51°8.978 2°34.604 17.6396 0.139566 0.851484 -1.766697
2008-03-20 12:14:28 51°8.994 2°34.667 17.6431 0.139566 0.85162 -1.766697
2008-03-20 12:15:28 51°9.012 2°34.73 17.6467 0.139566 0.851757 -1.766697
2008-03-20 12:16:28 51°9.028 2°34.792 17.6498 0.139566 0.851842 -1.766697
2008-03-20 12:17:28 51°9.066 2°34.842 17.6524 0.139566 0.852046 -1.766697
2008-03-20 12:18:28 51°9.111 2°34.832 17.6558 0.139464 0.85132 -1.766697
2008-03-20 12:19:28 51°9.144 2°34.827 17.6589 0.139464 0.851354 -1.766697
2008-03-20 12:20:28 51°9.171 2°34.848 17.6618 0.139464 0.851542 -1.766697
2008-03-20 12:21:28 51°9.198 2°34.881 17.6652 0.139361 0.850986 -1.766697
2008-03-20 12:22:28 51°9.219 2°34.912 17.6682 0.139361 0.851122 -1.766697
2008-03-20 12:23:28 51°9.228 2°34.95 17.6718 0.139361 0.851292 -1.766697
2008-03-20 12:24:28 51°9.228 2°34.98 17.6763 0.139361 0.851429 -1.766697
2008-03-20 12:25:28 51°9.22 2°34.989 17.6812 0.139258 0.850889 -1.766697
2008-03-20 12:26:28 51°9.185 2°35.039 17.6859 0.139258 0.851111 -1.766697
2008-03-20 12:27:28 51°9.16 2°35.085 17.6916 0.139258 0.851231 -1.766697
2008-03-20 12:28:28 51°9.123 2°35.099 17.6972 0.139258 0.851384 -1.766697
2008-03-20 12:29:28 51°9.08 2°35.1 17.7026 0.139155 0.850725 -1.766697
2008-03-20 12:30:28 51°9.003 2°35.092 17.7085 0.139155 0.850913 -1.766697
2008-03-20 12:31:28 51°8.97 2°35.108 17.7142 0.139155 0.850964 -1.766697
2008-03-20 12:32:28 51°8.95 2°35.123 17.7203 0.139155 0.851032 -1.766697
2008-03-20 12:33:28 51°8.933 2°35.071 17.7256 0.139155 0.851118 -1.766697
2008-03-20 12:34:28 51°8.943 2°35.007 17.7303 0.139155 0.85122 -1.766697
2008-03-20 12:35:28 51°8.952 2°34.917 17.7351 0.139052 0.850714 -1.766697
2008-03-20 12:36:28 51°8.97 2°34.825 17.7385 0.139052 0.8508 -1.766697
2008-03-20 12:37:28 51°8.975 2°34.754 17.7417 0.139052 0.850919 -1.766697
2008-03-20 12:38:28 51°8.995 2°34.695 17.7446 0.139052 0.851039 -1.766697
2008-03-20 12:39:28 51°9.005 2°34.613 17.7474 0.139052 0.851107 -1.766697
2008-03-20 12:40:28 51°9.007 2°34.544 17.75 0.139052 0.851175 -1.766697
2008-03-20 12:41:28 51°8.994 2°34.463 17.7528 0.138949 0.850601 -1.766697
2008-03-20 12:42:28 51°8.985 2°34.38 17.7557 0.138949 0.850686 -1.766697
2008-03-20 12:43:28 51°8.976 2°34.31 17.7593 0.138949 0.850823 -1.766697
2008-03-20 12:44:28 51°8.963 2°34.237 17.762 0.138949 0.850908 -1.766697
2008-03-20 12:45:28 51°8.942 2°34.166 17.7652 0.138949 0.851028 -1.766697
2008-03-20 12:46:28 51°8.918 2°34.099 17.7686 0.138949 0.851131 -1.766697
2008-03-20 12:47:28 51°8.895 2°34.035 17.7714 0.138949 0.851199 -1.766697
2008-03-20 12:48:28 51°8.874 2°33.97 17.7747 0.138949 0.851285 -1.766697
2008-03-20 12:49:28 51°8.852 2°33.904 17.7775 0.138949 0.85137 -1.766697
2008-03-20 12:50:28 51°8.832 2°33.836 17.7802 0.138949 0.851439 -1.766697
2008-03-20 12:51:28 51°8.81 2°33.772 17.7831 0.138949 0.851559 -1.766697
2008-03-20 12:52:28 51°8.789 2°33.706 17.7859 0.138846 0.851052 -1.766697
2008-03-20 12:53:28 51°8.764 2°33.645 17.7885 0.138846 0.851155 -1.766697
2008-03-20 12:54:28 51°8.737 2°33.583 17.7913 0.138846 0.851223 -1.766697
2008-03-20 12:55:28 51°8.709 2°33.521 17.794 0.138846 0.851326 -1.766697
2008-03-20 12:56:29 51°8.682 2°33.456 17.7963 0.138846 0.851446 -1.766697
2008-03-20 12:57:29 51°8.655 2°33.393 17.7989 0.138743 0.850871 -1.766697
2008-03-20 12:58:29 51°8.63 2°33.327 17.8018 0.138743 0.850905 -1.766697
2008-03-20 12:59:28 51°8.605 2°33.264 17.8042 0.138743 0.850956 -1.766697
2008-03-20 13:00:28 51°8.579 2°33.2 17.8066 0.138743 0.851025 -1.766697
2008-03-20 13:01:28 51°8.554 2°33.136 17.8093 0.138743 0.851145 -1.766697
2008-03-20 13:02:28 51°8.557 2°33.061 17.8117 0.138743 0.851316 -1.766697
2008-03-20 13:03:28 51°8.603 2°32.995 17.8137 0.138743 0.851453 -1.766697
2008-03-20 13:04:28 51°8.653 2°32.969 17.8154 0.13864 0.850963 -1.766697
2008-03-20 13:05:28 51°8.716 2°32.986 17.8167 0.13864 0.851135 -1.766697
2008-03-20 13:06:28 51°8.781 2°33.054 17.8171 0.13864 0.851272 -1.766697
2008-03-20 13:07:28 51°8.818 2°33.149 17.8166 0.13864 0.851392 -1.766697
2008-03-20 13:08:28 51°8.825 2°33.24 17.8153 0.13864 0.851598 -1.766697
2008-03-20 13:09:28 51°8.826 2°33.307 17.8135 0.138537 0.851108 -1.766697
2008-03-20 13:10:28 51°8.831 2°33.364 17.8124 0.138537 0.85128 -1.766697
2008-03-20 13:11:28 51°8.84 2°33.418 17.8117 0.138537 0.8514 -1.766697
2008-03-20 13:12:28 51°8.825 2°33.476 17.8116 0.138537 0.851434 -1.766697
2008-03-20 13:13:28 51°8.768 2°33.55 17.811 0.138434 0.85084 -1.766697
2008-03-20 13:14:28 51°8.724 2°33.593 17.8109 0.138434 0.850875 -1.766697
2008-03-20 13:15:28 51°8.683 2°33.64 17.8109 0.138434 0.850909 -1.766697
2008-03-20 13:16:28 51°8.638 2°33.708 17.8117 0.138434 0.850943 -1.766697
2008-03-20 13:17:28 51°8.607 2°33.806 17.8128 0.138434 0.850943 -1.766697
2008-03-20 13:18:28 51°8.615 2°33.922 17.8142 0.138434 0.850995 -1.766697
2008-03-20 13:19:28 51°8.645 2°34.015 17.816 0.138434 0.851029 -1.766697
2008-03-20 13:20:28 51°8.685 2°34.089 17.8178 0.138434 0.851115 -1.766697
2008-03-20 13:21:28 51°8.73 2°34.157 17.8188 0.138434 0.85115 -1.766697
2008-03-20 13:22:28 51°8.773 2°34.227 17.8199 0.138434 0.851201 -1.766697
2008-03-20 13:23:28 51°8.811 2°34.303 17.821 0.138434 0.851218 -1.766697
2008-03-20 13:24:28 51°8.849 2°34.378 17.8219 0.138434 0.851253 -1.766697
2008-03-20 13:25:28 51°8.883 2°34.46 17.8219 0.138434 0.851304 -1.766697
2008-03-20 13:26:28 51°8.919 2°34.541 17.8221 0.138434 0.851373 -1.766697
2008-03-20 13:27:28 51°8.955 2°34.625 17.823 0.138434 0.851408 -1.766697
2008-03-20 13:28:28 51°8.99 2°34.707 17.8239 0.138434 0.851476 -1.766697
2008-03-20 13:29:28 51°9.024 2°34.791 17.8239 0.138434 0.851511 -1.766697
2008-03-20 13:30:28 51°9.059 2°34.878 17.8252 0.138434 0.851545 -1.766697
2008-03-20 13:31:28 51°9.094 2°34.964 17.8261 0.138434 0.85158 -1.766697
2008-03-20 13:32:28 51°9.13 2°35.052 17.8269 0.138434 0.851614 -1.766697
2008-03-20 13:33:28 51°9.168 2°35.143 17.8272 0.138434 0.851666 -1.766697
2008-03-20 13:34:28 51°9.204 2°35.235 17.8277 0.138434 0.851683 -1.766697
2008-03-20 13:35:28 51°9.241 2°35.326 17.8287 0.138434 0.851734 -1.766697
2008-03-20 13:36:28 51°9.279 2°35.42 17.829 0.138434 0.851752 -1.766697
2008-03-20 13:37:28 51°9.318 2°35.512 17.8293 0.138434 0.851769 -1.766697
2008-03-20 13:38:28 51°9.356 2°35.605 17.8297 0.138434 0.851786 -1.766697
2008-03-20 13:39:28 51°9.393 2°35.698 17.8305 0.138434 0.851821 -1.766697
2008-03-20 13:40:28 51°9.431 2°35.79 17.8302 0.138434 0.851821 -1.766697
2008-03-20 13:41:28 51°9.465 2°35.883 17.8304 0.138434 0.851855 -1.766697
2008-03-20 13:42:28 51°9.495 2°35.979 17.8301 0.138434 0.851872 -1.766697
2008-03-20 13:43:28 51°9.522 2°36.077 17.8299 0.138434 0.851924 -1.766697
2008-03-20 13:44:28 51°9.551 2°36.174 17.8301 0.138434 0.851993 -1.766697
2008-03-20 13:45:28 51°9.578 2°36.269 17.8307 0.138332 0.851381 -1.766697
2008-03-20 13:46:29 51°9.606 2°36.364 17.8314 0.138332 0.851433 -1.766697
2008-03-20 13:47:28 51°9.633 2°36.455 17.8319 0.138332 0.851484 -1.766697
2008-03-20 13:48:28 51°9.66 2°36.546 17.8328 0.138332 0.851536 -1.766697
2008-03-20 13:49:28 51°9.687 2°36.633 17.8339 0.138332 0.851588 -1.766697
2008-03-20 13:50:29 51°9.715 2°36.72 17.8347 0.138332 0.851622 -1.766697
2008-03-20 13:51:28 51°9.741 2°36.805 17.8358 0.138332 0.851639 -1.766697
2008-03-20 13:52:28 51°9.769 2°36.893 17.8362 0.138332 0.851657 -1.766697
2008-03-20 13:53:29 51°9.797 2°36.983 17.8371 0.138332 0.851691 -1.766697
2008-03-20 13:54:28 51°9.824 2°37.07 17.8374 0.138332 0.851726 -1.766697
2008-03-20 13:55:28 51°9.853 2°37.158 17.8382 0.138332 0.851726 -1.766697
2008-03-20 13:56:29 51°9.881 2°37.247 17.8387 0.138332 0.851743 -1.766697
2008-03-20 13:57:28 51°9.908 2°37.336 17.8395 0.138332 0.851777 -1.766697
2008-03-20 13:58:29 51°9.938 2°37.428 17.8397 0.138332 0.851794 -1.766697
2008-03-20 13:59:28 51°9.967 2°37.518 17.8398 0.138229 0.851131 -1.766697
2008-03-20 14:00:28 51°9.99 2°37.611 17.8401 0.138229 0.851131 -1.766697
2008-03-20 14:01:28 51°9.995 2°37.701 17.8406 0.138229 0.851148 -1.766697
2008-03-20 14:02:28 51°9.991 2°37.777 17.8409 0.138229 0.851165 -1.766697
2008-03-20 14:03:28 51°9.984 2°37.846 17.8418 0.138229 0.851165 -1.766697
2008-03-20 14:04:28 51°9.964 2°37.921 17.8429 0.138229 0.851182 -1.766697
2008-03-20 14:05:28 51°9.946 2°37.971 17.8449 0.138229 0.851182 -1.766697
2008-03-20 14:06:28 51°9.939 2°38.015 17.8473 0.138229 0.851182 -1.766697
2008-03-20 14:07:28 51°9.939 2°38.057 17.8494 0.138229 0.851165 -1.766697
2008-03-20 14:08:28 51°9.929 2°38.106 17.8521 0.138126 0.850519 -1.766697
2008-03-20 14:09:28 51°9.937 2°38.241 17.8548 0.138126 0.850674 -1.766697
2008-03-20 14:10:28 51°9.994 2°38.496 17.8577 0.138126 0.850536 -1.766697
2008-03-20 14:11:28 51°10.066 2°38.82 17.8597 0.138126 0.850588 -1.766697
2008-03-20 14:12:28 51°10.145 2°39.151 17.8616 0.138126 0.850605 -1.766697
2008-03-20 14:13:28 51°10.22 2°39.481 17.8632 0.138126 0.850674 -1.766697
2008-03-20 14:14:28 51°10.308 2°39.81 17.8646 0.138126 0.850639 -1.766697
2008-03-20 14:15:28 51°10.399 2°40.134 17.866 0.138023 0.850079 -1.766697
2008-03-20 14:16:28 51°10.49 2°40.461 17.8673 0.138023 0.85001 -1.766697
2008-03-20 14:17:28 51°10.578 2°40.79 17.8684 0.138023 0.850044 -1.766697
2008-03-20 14:18:28 51°10.666 2°41.121 17.8707 0.138023 0.850044 -1.766697
2008-03-20 14:19:28 51°10.754 2°41.454 17.8724 0.138023 0.850061 -1.766697
2008-03-20 14:20:28 51°10.841 2°41.78 17.8735 0.138023 0.850113 -1.766697
2008-03-20 14:21:28 51°10.901 2°42.059 17.8755 0.138023 0.850061 -1.766697
2008-03-20 14:22:28 51°10.834 2°42.139 17.8772 0.13792 0.849518 -1.766697
2008-03-20 14:23:28 51°10.804 2°42.084 17.8793 0.13792 0.849432 -1.766697
2008-03-20 14:24:28 51°10.804 2°41.935 17.882 0.13792 0.849432 -1.766697
2008-03-20 14:25:28 51°10.798 2°41.74 17.8846 0.13792 0.849501 -1.766697
2008-03-20 14:26:28 51°10.794 2°41.537 17.8868 0.13792 0.849501 -1.766697
2008-03-20 14:27:28 51°10.791 2°41.339 17.8891 0.13792 0.849535 -1.766697
2008-03-20 14:28:28 51°10.79 2°41.145 17.8907 0.13792 0.849604 -1.766697
2008-03-20 14:29:28 51°10.789 2°40.956 17.8928 0.13792 0.849638 -1.766697
2008-03-20 14:30:28 51°10.79 2°40.766 17.8947 0.137817 0.849026 -1.766697
2008-03-20 14:31:28 51°10.791 2°40.574 17.8963 0.137817 0.84906 -1.766697
2008-03-20 14:32:28 51°10.791 2°40.382 17.8985 0.137817 0.849077 -1.766697
2008-03-20 14:33:28 51°10.787 2°40.213 17.8998 0.137817 0.849129 -1.766697
2008-03-20 14:34:28 51°10.737 2°40.21 17.9019 0.137817 0.849249 -1.766697
2008-03-20 14:35:28 51°10.747 2°40.343 17.9048 0.137817 0.849181 -1.766697
2008-03-20 14:36:29 51°10.793 2°40.54 17.9077 0.137714 0.848448 -1.766697
2008-03-20 14:37:28 51°10.841 2°40.869 17.9105 0.137714 0.848517 -1.766697
2008-03-20 14:38:28 51°10.89 2°41.224 17.913 0.137714 0.848551 -1.766697
2008-03-20 14:39:28 51°10.941 2°41.578 17.9151 0.137714 0.848551 -1.766697
2008-03-20 14:40:28 51°10.99 2°41.927 17.9171 0.137714 0.848551 -1.766697
2008-03-20 14:41:28 51°11.034 2°42.27 17.9198 0.137714 0.848534 -1.766697
2008-03-20 14:42:28 51°11.07 2°42.539 17.9218 0.137714 0.848534 -1.766697
2008-03-20 14:43:28 51°11.107 2°42.825 17.9245 0.137714 0.848499 -1.766697
2008-03-20 14:44:28 51°11.146 2°43.158 17.9265 0.137611 0.847887 -1.766697
2008-03-20 14:45:28 51°11.202 2°43.487 17.9286 0.137611 0.84787 -1.766697
2008-03-20 14:46:28 51°11.265 2°43.811 17.9302 0.137611 0.847852 -1.801521
2008-03-20 14:47:28 51°11.322 2°44.134 17.9326 0.137611 0.847921 -1.766697
2008-03-20 14:48:28 51°11.383 2°44.455 17.9339 0.137611 0.847818 -1.801521
2008-03-20 14:49:28 51°11.442 2°44.774 17.9357 0.137611 0.847835 -1.766697
2008-03-20 14:50:28 51°11.508 2°45.089 17.9369 0.137611 0.847801 -1.766697
2008-03-20 14:51:28 51°11.579 2°45.408 17.9384 0.137611 0.84787 -1.766697
2008-03-20 14:52:28 51°11.65 2°45.726 17.9399 0.137611 0.84787 -1.766697
2008-03-20 14:53:28 51°11.722 2°46.041 17.9402 0.137508 0.847206 -1.766697
2008-03-20 14:54:28 51°11.79 2°46.358 17.9413 0.137508 0.847171 -1.766697
2008-03-20 14:55:28 51°11.864 2°46.668 17.9416 0.137508 0.847171 -1.766697
2008-03-20 14:56:28 51°11.938 2°46.982 17.9422 0.137508 0.847137 -1.766697
2008-03-20 14:57:28 51°12.016 2°47.295 17.9415 0.137508 0.847154 -1.766697
2008-03-20 14:58:28 51°12.107 2°47.598 17.9405 0.137508 0.847188 -1.766697
2008-03-20 14:59:28 51°12.211 2°47.889 17.9384 0.137508 0.847154 -1.766697
2008-03-20 15:00:28 51°12.316 2°48.18 17.9366 0.137508 0.847154 -1.766697
2008-03-20 15:01:28 51°12.424 2°48.47 17.933 0.137508 0.847206 -1.766697
2008-03-20 15:02:28 51°12.527 2°48.759 17.9301 0.137508 0.847171 -1.766697
2008-03-20 15:03:28 51°12.629 2°49.044 17.9266 0.137508 0.847171 -1.766697
2008-03-20 15:04:28 51°12.743 2°49.326 17.9232 0.137508 0.847154 -1.766697
2008-03-20 15:05:28 51°12.86 2°49.602 17.9193 0.137405 0.84649 -1.766697
2008-03-20 15:06:28 51°12.976 2°49.883 17.9159 0.137405 0.846524 -1.766697
2008-03-20 15:07:28 51°13.094 2°50.159 17.9121 0.137405 0.84649 -1.766697
2008-03-20 15:08:28 51°13.205 2°50.442 17.9085 0.137405 0.846524 -1.766697
2008-03-20 15:09:28 51°13.321 2°50.721 17.905 0.137405 0.84649 -1.766697
2008-03-20 15:10:28 51°13.438 2°51.002 17.9011 0.137405 0.846507 -1.766697
2008-03-20 15:11:28 51°13.552 2°51.285 17.8975 0.137405 0.846524 -1.766697
2008-03-20 15:12:28 51°13.671 2°51.567 17.8946 0.137405 0.846456 -1.766697
2008-03-20 15:13:28 51°13.789 2°51.85 17.8909 0.137405 0.84649 -1.766697
2008-03-20 15:14:28 51°13.898 2°52.147 17.8872 0.137405 0.846456 -1.766697
2008-03-20 15:15:28 51°13.995 2°52.453 17.8835 0.137405 0.846456 -1.766697
2008-03-20 15:16:28 51°14.077 2°52.76 17.88 0.137405 0.846439 -1.766697
2008-03-20 15:17:28 51°14.158 2°53.071 17.8767 0.137405 0.846439 -1.766697
2008-03-20 15:18:28 51°14.233 2°53.38 17.8735 0.137405 0.846421 -1.766697
2008-03-20 15:19:28 51°14.289 2°53.646 17.8698 0.137405 0.846421 -1.766697
2008-03-20 15:20:28 51°14.308 2°53.838 17.8668 0.137405 0.846387 -1.766697
2008-03-20 15:21:28 51°14.343 2°54.037 17.8633 0.137405 0.846404 -1.766697
2008-03-20 15:22:28 51°14.393 2°54.341 17.8599 0.137302 0.84574 -1.766697
2008-03-20 15:23:28 51°14.42 2°54.674 17.8559 0.137405 0.84637 -1.766697
2008-03-20 15:24:28 51°14.388 2°54.966 17.8528 0.137302 0.845672 -1.766697
2008-03-20 15:25:28 51°14.292 2°55.202 17.8488 0.137302 0.845638 -1.766697
2008-03-20 15:26:28 51°14.185 2°55.347 17.8455 0.137302 0.845655 -1.766697
2008-03-20 15:27:28 51°14.11 2°55.413 17.8419 0.137302 0.845621 -1.766697
2008-03-20 15:28:28 51°14.038 2°55.47 17.8381 0.137302 0.845621 -1.766697
2008-03-20 15:29:28 51°13.95 2°55.54 17.8334 0.137302 0.845603 -1.766697
2008-03-20 15:30:28 51°13.858 2°55.605 17.829 0.137302 0.845569 -1.766697
2008-03-20 15:31:28 51°13.776 2°55.677 17.8242 0.137302 0.845586 -1.766697
2008-03-20 15:32:28 51°13.725 2°55.767 17.8194 0.137302 0.845586 -1.766697
2008-03-20 15:33:28 51°13.684 2°55.857 17.8147 0.137302 0.845552 -1.766697
2008-03-20 15:34:28 51°13.668 2°55.933 17.8096 0.137302 0.845586 -1.766697